sensor_id;sensor_type;location;lat;lon;timestamp;pressure;altitude;pressure_sealevel;temperature;humidity
41688;BME280;27371;42.686;23.362;2023-11-21T00:00:32;163197.59;;;3.84;93.63
41688;BME280;27371;42.686;23.362;2023-11-21T00:02:58;163216.19;;;3.91;92.83
41688;BME280;27371;42.686;23.362;2023-11-21T00:05:24;163218.88;;;3.92;92.72
41688;BME280;27371;42.686;23.362;2023-11-21T00:07:49;163206.88;;;3.87;92.66
41688;BME280;27371;42.686;23.362;2023-11-21T00:10:15;163156.31;;;3.68;92.81
41688;BME280;27371;42.686;23.362;2023-11-21T00:12:41;163079.16;;;3.38;92.92
41688;BME280;27371;42.686;23.362;2023-11-21T00:15:08;163164.31;;;3.71;93.45
41688;BME280;27371;42.686;23.362;2023-11-21T00:17:37;163105.78;;;3.48;92.12
41688;BME280;27371;42.686;23.362;2023-11-21T00:20:05;162988.75;;;3.03;91.82
41688;BME280;27371;42.686;23.362;2023-11-21T00:22:35;162873.03;;;2.59;93.71
41688;BME280;27371;42.686;23.362;2023-11-21T00:25:01;163020.63;;;3.16;95.37
41688;BME280;27371;42.686;23.362;2023-11-21T00:27:29;163045.94;;;3.25;96.74
41688;BME280;27371;42.686;23.362;2023-11-21T00:29:54;163052.53;;;3.28;97.36
41688;BME280;27371;42.686;23.362;2023-11-21T00:32:20;163067.16;;;3.33;97.38
41688;BME280;27371;42.686;23.362;2023-11-21T00:34:45;163072.50;;;3.35;97.31
41688;BME280;27371;42.686;23.362;2023-11-21T00:37:11;163052.53;;;3.28;98.35
41688;BME280;27371;42.686;23.362;2023-11-21T00:39:37;163079.16;;;3.38;98.12
41688;BME280;27371;42.686;23.362;2023-11-21T00:42:02;163095.09;;;3.44;97.55
41688;BME280;27371;42.686;23.362;2023-11-21T00:44:30;163120.41;;;3.54;97.43
41688;BME280;27371;42.686;23.362;2023-11-21T00:46:55;163116.38;;;3.52;97.23
41688;BME280;27371;42.686;23.362;2023-11-21T00:49:21;163128.38;;;3.57;96.85
41688;BME280;27371;42.686;23.362;2023-11-21T00:51:46;163132.41;;;3.59;96.77
41688;BME280;27371;42.686;23.362;2023-11-21T00:54:12;163123.03;;;3.55;96.64
41688;BME280;27371;42.686;23.362;2023-11-21T00:56:38;163148.34;;;3.65;96.33
41688;BME280;27371;42.686;23.362;2023-11-21T00:59:03;163170.97;;;3.73;95.78
41688;BME280;27371;42.686;23.362;2023-11-21T01:01:30;163182.94;;;3.78;95.53
41688;BME280;27371;42.686;23.362;2023-11-21T01:03:58;163176.28;;;3.75;94.97
41688;BME280;27371;42.686;23.362;2023-11-21T01:06:24;163153.69;;;3.67;94.47
41688;BME280;27371;42.686;23.362;2023-11-21T01:08:49;163071.19;;;3.35;91.68
41688;BME280;27371;42.686;23.362;2023-11-21T01:11:15;163000.69;;;3.08;92.79
41688;BME280;27371;42.686;23.362;2023-11-21T01:13:41;162962.13;;;2.93;94.39
41688;BME280;27371;42.686;23.362;2023-11-21T01:16:07;162947.50;;;2.87;96.37
41688;BME280;27371;42.686;23.362;2023-11-21T01:18:35;162955.47;;;2.90;97.41
41688;BME280;27371;42.686;23.362;2023-11-21T01:21:00;162915.56;;;2.75;97.87
41688;BME280;27371;42.686;23.362;2023-11-21T01:23:26;162903.63;;;2.71;98.31
41688;BME280;27371;42.686;23.362;2023-11-21T01:25:52;162878.34;;;2.61;98.52
41688;BME280;27371;42.686;23.362;2023-11-21T01:28:18;162857.06;;;2.53;99.10
41688;BME280;27371;42.686;23.362;2023-11-21T01:30:45;162855.75;;;2.52;99.83
41688;BME280;27371;42.686;23.362;2023-11-21T01:33:11;162855.75;;;2.52;99.66
41688;BME280;27371;42.686;23.362;2023-11-21T01:35:36;162842.47;;;2.47;99.43
41688;BME280;27371;42.686;23.362;2023-11-21T01:38:02;162839.81;;;2.46;99.79
41688;BME280;27371;42.686;23.362;2023-11-21T01:40:29;162842.47;;;2.47;100.00
41688;BME280;27371;42.686;23.362;2023-11-21T01:42:55;162843.78;;;2.48;99.74
41688;BME280;27371;42.686;23.362;2023-11-21T01:45:21;162854.44;;;2.52;99.81
41688;BME280;27371;42.686;23.362;2023-11-21T01:47:46;162887.66;;;2.64;99.63
41688;BME280;27371;42.686;23.362;2023-11-21T01:50:15;162898.31;;;2.68;99.00
41688;BME280;27371;42.686;23.362;2023-11-21T01:52:45;162895.66;;;2.67;99.01
41688;BME280;27371;42.686;23.362;2023-11-21T01:55:13;162891.66;;;2.66;98.55
41688;BME280;27371;42.686;23.362;2023-11-21T01:57:39;162858.41;;;2.53;98.37
41688;BME280;27371;42.686;23.362;2023-11-21T02:00:06;162749.41;;;2.11;95.76
41688;BME280;27371;42.686;23.362;2023-11-21T02:02:44;162667.03;;;1.80;96.17
41688;BME280;27371;42.686;23.362;2023-11-21T02:05:19;162639.13;;;1.69;98.06
41688;BME280;27371;42.686;23.362;2023-11-21T02:07:47;162643.09;;;1.70;100.00
41688;BME280;27371;42.686;23.362;2023-11-21T02:10:18;162668.38;;;1.80;100.00
41688;BME280;27371;42.686;23.362;2023-11-21T02:12:49;162700.22;;;1.92;100.00
41688;BME280;27371;42.686;23.362;2023-11-21T02:15:17;162733.47;;;2.05;100.00
41688;BME280;27371;42.686;23.362;2023-11-21T02:17:47;162753.41;;;2.13;100.00
41688;BME280;27371;42.686;23.362;2023-11-21T02:20:20;162752.09;;;2.12;100.00
41688;BME280;27371;42.686;23.362;2023-11-21T02:22:56;162741.44;;;2.08;100.00
41688;BME280;27371;42.686;23.362;2023-11-21T02:25:30;162777.31;;;2.22;100.00
41688;BME280;27371;42.686;23.362;2023-11-21T02:28:00;162789.31;;;2.27;100.00
41688;BME280;27371;42.686;23.362;2023-11-21T02:30:26;162801.25;;;2.31;100.00
41688;BME280;27371;42.686;23.362;2023-11-21T02:32:57;162815.84;;;2.37;100.00
41688;BME280;27371;42.686;23.362;2023-11-21T02:35:23;162830.47;;;2.42;100.00
41688;BME280;27371;42.686;23.362;2023-11-21T02:37:49;162818.53;;;2.38;100.00
41688;BME280;27371;42.686;23.362;2023-11-21T02:40:15;162851.75;;;2.51;100.00
41688;BME280;27371;42.686;23.362;2023-11-21T02:42:49;162847.78;;;2.49;99.84
41688;BME280;27371;42.686;23.362;2023-11-21T02:45:17;162851.75;;;2.51;99.90
41688;BME280;27371;42.686;23.362;2023-11-21T02:47:43;162849.09;;;2.50;99.84
41688;BME280;27371;42.686;23.362;2023-11-21T02:50:09;162851.75;;;2.51;99.60
41688;BME280;27371;42.686;23.362;2023-11-21T02:52:35;162865.06;;;2.56;98.82
41688;BME280;27371;42.686;23.362;2023-11-21T02:55:04;162770.69;;;2.19;95.77
41688;BME280;27371;42.686;23.362;2023-11-21T02:57:29;162736.13;;;2.06;95.89
41688;BME280;27371;42.686;23.362;2023-11-21T02:59:55;162701.56;;;1.93;97.43
41688;BME280;27371;42.686;23.362;2023-11-21T03:02:21;162720.19;;;2.00;98.99
41688;BME280;27371;42.686;23.362;2023-11-21T03:04:47;162752.09;;;2.12;100.00
41688;BME280;27371;42.686;23.362;2023-11-21T03:07:14;162760.06;;;2.15;100.00
41688;BME280;27371;42.686;23.362;2023-11-21T03:09:40;162720.19;;;2.00;100.00
41688;BME280;27371;42.686;23.362;2023-11-21T03:12:06;162708.19;;;1.95;100.00
41688;BME280;27371;42.686;23.362;2023-11-21T03:14:32;162673.69;;;1.82;100.00
41688;BME280;27371;42.686;23.362;2023-11-21T03:16:57;162657.72;;;1.76;100.00
41688;BME280;27371;42.686;23.362;2023-11-21T03:19:23;162651.06;;;1.73;100.00
41688;BME280;27371;42.686;23.362;2023-11-21T03:21:49;162645.78;;;1.71;100.00
41688;BME280;27371;42.686;23.362;2023-11-21T03:24:14;162663.03;;;1.78;100.00
41688;BME280;27371;42.686;23.362;2023-11-21T03:26:45;162635.13;;;1.67;100.00
41688;BME280;27371;42.686;23.362;2023-11-21T03:29:12;162686.94;;;1.87;100.00
41688;BME280;27371;42.686;23.362;2023-11-21T03:31:37;162693.59;;;1.90;100.00
41688;BME280;27371;42.686;23.362;2023-11-21T03:34:03;162694.97;;;1.90;100.00
41688;BME280;27371;42.686;23.362;2023-11-21T03:36:29;162726.81;;;2.03;100.00
41688;BME280;27371;42.686;23.362;2023-11-21T03:38:54;162737.44;;;2.07;100.00
41688;BME280;27371;42.686;23.362;2023-11-21T03:41:21;162733.47;;;2.05;100.00
41688;BME280;27371;42.686;23.362;2023-11-21T03:43:46;162713.53;;;1.97;100.00
41688;BME280;27371;42.686;23.362;2023-11-21T03:46:12;162764.03;;;2.17;100.00
41688;BME280;27371;42.686;23.362;2023-11-21T03:48:38;162693.59;;;1.90;98.80
41688;BME280;27371;42.686;23.362;2023-11-21T03:51:04;162635.13;;;1.67;97.96
41688;BME280;27371;42.686;23.362;2023-11-21T03:53:29;162635.13;;;1.67;99.05
41688;BME280;27371;42.686;23.362;2023-11-21T03:55:55;162633.81;;;1.67;100.00
41688;BME280;27371;42.686;23.362;2023-11-21T03:58:20;162640.47;;;1.69;100.00
41688;BME280;27371;42.686;23.362;2023-11-21T04:00:46;162640.47;;;1.69;100.00
41688;BME280;27371;42.686;23.362;2023-11-21T04:03:14;162661.72;;;1.77;100.00
41688;BME280;27371;42.686;23.362;2023-11-21T04:05:39;162667.03;;;1.80;100.00
41688;BME280;27371;42.686;23.362;2023-11-21T04:08:06;162672.31;;;1.82;100.00
41688;BME280;27371;42.686;23.362;2023-11-21T04:10:31;162677.66;;;1.84;100.00
41688;BME280;27371;42.686;23.362;2023-11-21T04:12:58;162665.69;;;1.79;100.00
41688;BME280;27371;42.686;23.362;2023-11-21T04:15:23;162639.13;;;1.69;100.00
41688;BME280;27371;42.686;23.362;2023-11-21T04:17:49;162637.81;;;1.68;100.00
41688;BME280;27371;42.686;23.362;2023-11-21T04:20:14;162624.53;;;1.63;100.00
41688;BME280;27371;42.686;23.362;2023-11-21T04:22:40;162615.19;;;1.60;100.00
41688;BME280;27371;42.686;23.362;2023-11-21T04:25:10;162597.94;;;1.53;100.00
41688;BME280;27371;42.686;23.362;2023-11-21T04:27:38;162616.56;;;1.60;100.00
41688;BME280;27371;42.686;23.362;2023-11-21T04:30:04;162624.53;;;1.63;100.00
41688;BME280;27371;42.686;23.362;2023-11-21T04:32:30;162635.13;;;1.67;100.00
41688;BME280;27371;42.686;23.362;2023-11-21T04:34:56;162623.22;;;1.63;100.00
41688;BME280;27371;42.686;23.362;2023-11-21T04:37:21;162621.84;;;1.62;100.00
41688;BME280;27371;42.686;23.362;2023-11-21T04:39:46;162621.84;;;1.62;100.00
41688;BME280;27371;42.686;23.362;2023-11-21T04:42:12;162609.91;;;1.58;100.00
41688;BME280;27371;42.686;23.362;2023-11-21T04:44:37;162635.13;;;1.67;100.00
41688;BME280;27371;42.686;23.362;2023-11-21T04:47:06;162644.41;;;1.71;100.00
41688;BME280;27371;42.686;23.362;2023-11-21T04:49:33;162621.84;;;1.62;100.00
41688;BME280;27371;42.686;23.362;2023-11-21T04:51:58;162680.28;;;1.85;100.00
41688;BME280;27371;42.686;23.362;2023-11-21T04:54:24;162682.97;;;1.86;100.00
41688;BME280;27371;42.686;23.362;2023-11-21T04:56:49;162706.88;;;1.95;100.00
41688;BME280;27371;42.686;23.362;2023-11-21T04:59:15;162717.53;;;1.99;100.00
41688;BME280;27371;42.686;23.362;2023-11-21T05:01:41;162729.47;;;2.04;100.00
41688;BME280;27371;42.686;23.362;2023-11-21T05:04:06;162742.75;;;2.09;100.00
41688;BME280;27371;42.686;23.362;2023-11-21T05:06:34;162744.09;;;2.09;100.00
41688;BME280;27371;42.686;23.362;2023-11-21T05:08:59;162752.09;;;2.12;100.00
41688;BME280;27371;42.686;23.362;2023-11-21T05:11:26;162762.72;;;2.16;100.00
41688;BME280;27371;42.686;23.362;2023-11-21T05:13:52;162773.31;;;2.20;99.83
41688;BME280;27371;42.686;23.362;2023-11-21T05:16:19;162782.66;;;2.24;99.73
41688;BME280;27371;42.686;23.362;2023-11-21T05:18:45;162914.25;;;2.75;100.00
41688;BME280;27371;42.686;23.362;2023-11-21T05:21:11;162967.47;;;2.95;100.00
41688;BME280;27371;42.686;23.362;2023-11-21T05:23:36;162962.13;;;2.93;100.00
41688;BME280;27371;42.686;23.362;2023-11-21T05:26:03;162950.16;;;2.88;100.00
41688;BME280;27371;42.686;23.362;2023-11-21T05:28:29;162930.19;;;2.81;100.00
41688;BME280;27371;42.686;23.362;2023-11-21T05:30:54;162910.28;;;2.73;100.00
41688;BME280;27371;42.686;23.362;2023-11-21T05:33:20;162907.59;;;2.72;99.67
41688;BME280;27371;42.686;23.362;2023-11-21T05:35:46;162889.00;;;2.65;99.27
41688;BME280;27371;42.686;23.362;2023-11-21T05:38:13;162865.06;;;2.56;98.80
41688;BME280;27371;42.686;23.362;2023-11-21T05:40:38;162890.34;;;2.65;98.45
41688;BME280;27371;42.686;23.362;2023-11-21T05:43:04;162900.94;;;2.70;98.28
41688;BME280;27371;42.686;23.362;2023-11-21T05:45:30;162900.94;;;2.70;98.10
41688;BME280;27371;42.686;23.362;2023-11-21T05:47:57;162895.66;;;2.67;97.53
41688;BME280;27371;42.686;23.362;2023-11-21T05:50:22;162861.09;;;2.54;97.31
41688;BME280;27371;42.686;23.362;2023-11-21T05:52:48;162845.09;;;2.48;96.99
41688;BME280;27371;42.686;23.362;2023-11-21T05:55:14;162819.88;;;2.38;97.19
41688;BME280;27371;42.686;23.362;2023-11-21T05:57:42;162790.63;;;2.27;97.40
41688;BME280;27371;42.686;23.362;2023-11-21T06:00:10;162760.06;;;2.15;97.68
41688;BME280;27371;42.686;23.362;2023-11-21T06:02:40;162754.75;;;2.13;98.16
41688;BME280;27371;42.686;23.362;2023-11-21T06:05:06;162748.09;;;2.11;98.62
41688;BME280;27371;42.686;23.362;2023-11-21T06:07:32;162749.41;;;2.11;98.83
41688;BME280;27371;42.686;23.362;2023-11-21T06:09:58;162756.06;;;2.14;98.89
41688;BME280;27371;42.686;23.362;2023-11-21T06:12:24;162777.31;;;2.22;98.89
41688;BME280;27371;42.686;23.362;2023-11-21T06:14:49;162781.34;;;2.23;99.01
41688;BME280;27371;42.686;23.362;2023-11-21T06:17:15;162791.94;;;2.28;98.85
41688;BME280;27371;42.686;23.362;2023-11-21T06:19:40;162814.53;;;2.36;99.00
41688;BME280;27371;42.686;23.362;2023-11-21T06:22:06;162823.88;;;2.40;98.71
41688;BME280;27371;42.686;23.362;2023-11-21T06:24:31;162814.53;;;2.36;98.77
41688;BME280;27371;42.686;23.362;2023-11-21T06:26:57;162802.59;;;2.32;98.63
41688;BME280;27371;42.686;23.362;2023-11-21T06:29:22;162831.84;;;2.43;98.13
41688;BME280;27371;42.686;23.362;2023-11-21T06:31:49;162768.03;;;2.18;96.93
41688;BME280;27371;42.686;23.362;2023-11-21T06:34:14;162716.16;;;1.98;96.53
41688;BME280;27371;42.686;23.362;2023-11-21T06:36:40;162738.81;;;2.07;97.11
41688;BME280;27371;42.686;23.362;2023-11-21T06:39:05;162726.81;;;2.03;97.76
41688;BME280;27371;42.686;23.362;2023-11-21T06:41:33;162728.16;;;2.03;98.69
41688;BME280;27371;42.686;23.362;2023-11-21T06:43:59;162758.69;;;2.15;99.58
41688;BME280;27371;42.686;23.362;2023-11-21T06:46:24;162807.88;;;2.34;99.40
41688;BME280;27371;42.686;23.362;2023-11-21T06:48:50;162869.06;;;2.57;99.82
41688;BME280;27371;42.686;23.362;2023-11-21T06:51:16;162920.91;;;2.77;99.52
41688;BME280;27371;42.686;23.362;2023-11-21T06:53:41;162986.06;;;3.02;99.36
41688;BME280;27371;42.686;23.362;2023-11-21T06:56:17;162952.84;;;2.89;98.75
41688;BME280;27371;42.686;23.362;2023-11-21T06:58:44;163085.81;;;3.41;98.15
41688;BME280;27371;42.686;23.362;2023-11-21T07:01:11;163124.38;;;3.55;96.88
41688;BME280;27371;42.686;23.362;2023-11-21T07:03:36;163151.00;;;3.66;96.18
41688;BME280;27371;42.686;23.362;2023-11-21T07:06:03;163217.50;;;3.91;94.63
41688;BME280;27371;42.686;23.362;2023-11-21T07:08:29;163229.50;;;3.96;93.25
41688;BME280;27371;42.686;23.362;2023-11-21T07:10:54;163242.81;;;4.01;92.65
41688;BME280;27371;42.686;23.362;2023-11-21T07:13:20;163274.72;;;4.13;92.57
41688;BME280;27371;42.686;23.362;2023-11-21T07:15:47;163330.63;;;4.35;91.49
41688;BME280;27371;42.686;23.362;2023-11-21T07:18:13;163347.97;;;4.41;91.04
41688;BME280;27371;42.686;23.362;2023-11-21T07:20:39;163363.94;;;4.47;90.64
41688;BME280;27371;42.686;23.362;2023-11-21T07:23:04;163383.91;;;4.55;89.83
41688;BME280;27371;42.686;23.362;2023-11-21T07:25:31;163411.88;;;4.66;89.77
41688;BME280;27371;42.686;23.362;2023-11-21T07:27:59;163422.50;;;4.70;89.27
41688;BME280;27371;42.686;23.362;2023-11-21T07:30:24;163453.09;;;4.82;88.85
41688;BME280;27371;42.686;23.362;2023-11-21T07:32:49;163486.41;;;4.95;88.41
41688;BME280;27371;42.686;23.362;2023-11-21T07:35:15;163505.09;;;5.02;88.03
41688;BME280;27371;42.686;23.362;2023-11-21T07:37:41;163506.41;;;5.02;87.27
41688;BME280;27371;42.686;23.362;2023-11-21T07:40:07;163481.06;;;4.93;86.75
41688;BME280;27371;42.686;23.362;2023-11-21T07:42:34;163538.34;;;5.14;87.02
41688;BME280;27371;42.686;23.362;2023-11-21T07:45:00;163551.66;;;5.20;86.63
41688;BME280;27371;42.686;23.362;2023-11-21T07:47:25;163600.94;;;5.39;86.26
41688;BME280;27371;42.686;23.362;2023-11-21T07:49:53;163640.88;;;5.54;85.70
41688;BME280;27371;42.686;23.362;2023-11-21T07:52:18;163647.53;;;5.56;84.88
41688;BME280;27371;42.686;23.362;2023-11-21T07:54:46;163646.22;;;5.56;84.30
41688;BME280;27371;42.686;23.362;2023-11-21T07:57:11;163652.88;;;5.58;84.60
41688;BME280;27371;42.686;23.362;2023-11-21T07:59:39;163655.53;;;5.59;84.59
41688;BME280;27371;42.686;23.362;2023-11-21T08:02:06;163659.56;;;5.61;84.52
41688;BME280;27371;42.686;23.362;2023-11-21T08:04:32;163675.53;;;5.67;84.77
41688;BME280;27371;42.686;23.362;2023-11-21T08:06:57;163684.88;;;5.71;84.80
41688;BME280;27371;42.686;23.362;2023-11-21T08:09:23;163682.19;;;5.70;84.78
41688;BME280;27371;42.686;23.362;2023-11-21T08:11:49;163704.84;;;5.78;84.83
41688;BME280;27371;42.686;23.362;2023-11-21T08:14:15;163714.19;;;5.82;84.48
41688;BME280;27371;42.686;23.362;2023-11-21T08:16:41;163659.56;;;5.61;83.94
41688;BME280;27371;42.686;23.362;2023-11-21T08:19:06;163678.22;;;5.68;84.18
41688;BME280;27371;42.686;23.362;2023-11-21T08:21:33;163711.50;;;5.81;84.44
41688;BME280;27371;42.686;23.362;2023-11-21T08:23:59;163744.88;;;5.94;84.29
41688;BME280;27371;42.686;23.362;2023-11-21T08:26:25;163775.50;;;6.06;83.99
41688;BME280;27371;42.686;23.362;2023-11-21T08:28:51;163807.53;;;6.18;83.69
41688;BME280;27371;42.686;23.362;2023-11-21T08:31:23;163842.13;;;6.31;83.18
41688;BME280;27371;42.686;23.362;2023-11-21T08:33:49;163886.16;;;6.48;82.79
41688;BME280;27371;42.686;23.362;2023-11-21T08:36:15;163867.47;;;6.41;82.12
41688;BME280;27371;42.686;23.362;2023-11-21T08:38:41;163884.78;;;6.47;82.57
41688;BME280;27371;42.686;23.362;2023-11-21T08:41:07;163918.13;;;6.60;82.03
41688;BME280;27371;42.686;23.362;2023-11-21T08:43:34;163950.09;;;6.73;81.46
41688;BME280;27371;42.686;23.362;2023-11-21T08:46:00;163958.13;;;6.76;80.08
41688;BME280;27371;42.686;23.362;2023-11-21T08:48:25;163952.78;;;6.74;80.24
41688;BME280;27371;42.686;23.362;2023-11-21T08:50:53;163951.47;;;6.73;79.83
41688;BME280;27371;42.686;23.362;2023-11-21T08:53:19;163955.44;;;6.75;79.46
41688;BME280;27371;42.686;23.362;2023-11-21T08:55:44;163942.09;;;6.69;79.46
41688;BME280;27371;42.686;23.362;2023-11-21T08:58:10;164003.44;;;6.93;79.00
41688;BME280;27371;42.686;23.362;2023-11-21T09:00:37;164008.81;;;6.95;78.77
41688;BME280;27371;42.686;23.362;2023-11-21T09:03:05;163988.78;;;6.87;78.57
41688;BME280;27371;42.686;23.362;2023-11-21T09:05:34;163939.47;;;6.68;78.64
41688;BME280;27371;42.686;23.362;2023-11-21T09:07:59;163922.16;;;6.62;79.48
41688;BME280;27371;42.686;23.362;2023-11-21T09:10:25;163911.47;;;6.58;79.41
41688;BME280;27371;42.686;23.362;2023-11-21T09:12:50;163920.78;;;6.61;79.87
41688;BME280;27371;42.686;23.362;2023-11-21T09:15:17;163896.78;;;6.52;79.60
41688;BME280;27371;42.686;23.362;2023-11-21T09:17:42;163858.16;;;6.37;80.26
41688;BME280;27371;42.686;23.362;2023-11-21T09:20:10;163840.81;;;6.31;80.91
41688;BME280;27371;42.686;23.362;2023-11-21T09:22:35;163819.47;;;6.22;81.15
41688;BME280;27371;42.686;23.362;2023-11-21T09:25:01;163787.53;;;6.10;81.50
41688;BME280;27371;42.686;23.362;2023-11-21T09:27:33;163819.47;;;6.22;82.15
41688;BME280;27371;42.686;23.362;2023-11-21T09:29:58;163846.16;;;6.33;81.67
41688;BME280;27371;42.686;23.362;2023-11-21T09:32:24;163859.47;;;6.38;81.31
41688;BME280;27371;42.686;23.362;2023-11-21T09:34:50;163824.81;;;6.24;81.60
41688;BME280;27371;42.686;23.362;2023-11-21T09:37:15;163891.44;;;6.50;81.38
41688;BME280;27371;42.686;23.362;2023-11-21T09:39:41;163835.50;;;6.29;81.30
41688;BME280;27371;42.686;23.362;2023-11-21T09:42:13;163884.78;;;6.47;81.47
41688;BME280;27371;42.686;23.362;2023-11-21T09:47:15;163947.44;;;6.72;81.53
41688;BME280;27371;42.686;23.362;2023-11-21T09:49:43;163968.78;;;6.80;81.04
41688;BME280;27371;42.686;23.362;2023-11-21T09:52:18;163978.09;;;6.83;80.01
41688;BME280;27371;42.686;23.362;2023-11-21T09:54:52;163982.13;;;6.85;79.71
41688;BME280;27371;42.686;23.362;2023-11-21T09:57:24;164043.44;;;7.08;79.43
41688;BME280;27371;42.686;23.362;2023-11-21T09:59:56;164054.13;;;7.12;78.38
41688;BME280;27371;42.686;23.362;2023-11-21T10:02:26;164039.44;;;7.07;78.71
41688;BME280;27371;42.686;23.362;2023-11-21T10:04:53;164055.44;;;7.13;78.99
41688;BME280;27371;42.686;23.362;2023-11-21T10:07:20;164064.75;;;7.17;78.86
41688;BME280;27371;42.686;23.362;2023-11-21T10:09:47;164116.81;;;7.36;78.43
41688;BME280;27371;42.686;23.362;2023-11-21T10:12:15;164160.81;;;7.53;78.16
41688;BME280;27371;42.686;23.362;2023-11-21T10:14:41;164199.47;;;7.68;77.33
41688;BME280;27371;42.686;23.362;2023-11-21T10:17:12;164230.16;;;7.80;76.77
41688;BME280;27371;42.686;23.362;2023-11-21T10:19:42;164267.53;;;7.94;76.26
41688;BME280;27371;42.686;23.362;2023-11-21T10:22:08;164306.22;;;8.09;75.75
41688;BME280;27371;42.686;23.362;2023-11-21T10:24:35;164328.88;;;8.18;75.07
41688;BME280;27371;42.686;23.362;2023-11-21T10:27:02;164348.91;;;8.25;74.12
41688;BME280;27371;42.686;23.362;2023-11-21T10:29:31;164363.59;;;8.31;73.26
41688;BME280;27371;42.686;23.362;2023-11-21T10:32:02;164399.69;;;8.45;73.24
41688;BME280;27371;42.686;23.362;2023-11-21T10:34:27;164430.38;;;8.57;72.94
41688;BME280;27371;42.686;23.362;2023-11-21T10:36:53;164421.03;;;8.53;72.33
41688;BME280;27371;42.686;23.362;2023-11-21T10:39:20;164459.72;;;8.68;71.62
41688;BME280;27371;42.686;23.362;2023-11-21T10:41:49;164483.78;;;8.77;71.66
41688;BME280;27371;42.686;23.362;2023-11-21T10:44:17;164498.47;;;8.83;70.56
41688;BME280;27371;42.686;23.362;2023-11-21T10:46:53;164499.78;;;8.83;70.12
41688;BME280;27371;42.686;23.362;2023-11-21T10:49:22;164517.13;;;8.90;69.70
41688;BME280;27371;42.686;23.362;2023-11-21T10:51:50;164569.22;;;9.10;69.47
41688;BME280;27371;42.686;23.362;2023-11-21T10:54:23;164599.91;;;9.22;68.63
41688;BME280;27371;42.686;23.362;2023-11-21T10:56:50;164629.28;;;9.33;67.95
41688;BME280;27371;42.686;23.362;2023-11-21T10:59:19;164597.22;;;9.21;67.58
41688;BME280;27371;42.686;23.362;2023-11-21T11:01:46;164643.97;;;9.39;67.81
41688;BME280;27371;42.686;23.362;2023-11-21T11:04:15;164670.72;;;9.49;67.89
41688;BME280;27371;42.686;23.362;2023-11-21T11:06:55;164672.03;;;9.49;67.56
41688;BME280;27371;42.686;23.362;2023-11-21T11:09:22;164680.03;;;9.52;67.44
41688;BME280;27371;42.686;23.362;2023-11-21T11:11:48;164630.63;;;9.33;66.70
41688;BME280;27371;42.686;23.362;2023-11-21T11:14:14;164681.38;;;9.53;67.13
41688;BME280;27371;42.686;23.362;2023-11-21T11:16:41;164682.69;;;9.53;67.01
41688;BME280;27371;42.686;23.362;2023-11-21T11:19:10;164654.63;;;9.43;66.84
41688;BME280;27371;42.686;23.362;2023-11-21T11:21:43;164639.94;;;9.37;67.04
41688;BME280;27371;42.686;23.362;2023-11-21T11:30:26;164653.31;;;9.42;67.15
41688;BME280;27371;42.686;23.362;2023-11-21T11:36:02;164674.69;;;9.50;67.14
41688;BME280;27371;42.686;23.362;2023-11-21T11:38:33;164690.69;;;9.56;67.07
41688;BME280;27371;42.686;23.362;2023-11-21T11:41:05;164682.69;;;9.53;66.60
41688;BME280;27371;42.686;23.362;2023-11-21T11:43:32;164665.34;;;9.47;66.69
41688;BME280;27371;42.686;23.362;2023-11-21T11:46:10;164670.72;;;9.49;66.79
41688;BME280;27371;42.686;23.362;2023-11-21T11:48:39;164652.00;;;9.42;66.72
41688;BME280;27371;42.686;23.362;2023-11-21T11:51:11;164638.63;;;9.36;67.52
41688;BME280;27371;42.686;23.362;2023-11-21T11:53:40;164614.59;;;9.27;67.86
41688;BME280;27371;42.686;23.362;2023-11-21T11:56:33;164633.28;;;9.34;68.09
41688;BME280;27371;42.686;23.362;2023-11-21T11:59:03;164649.34;;;9.41;69.63
41688;BME280;27371;42.686;23.362;2023-11-21T12:01:32;164622.63;;;9.30;69.88
41688;BME280;27371;42.686;23.362;2023-11-21T12:07:00;164646.63;;;9.40;70.77
41688;BME280;27371;42.686;23.362;2023-11-21T12:09:28;164625.28;;;9.31;71.90
41688;BME280;27371;42.686;23.362;2023-11-21T12:11:55;164611.97;;;9.26;72.99
41688;BME280;27371;42.686;23.362;2023-11-21T12:14:22;164551.84;;;9.03;74.07
41688;BME280;27371;42.686;23.362;2023-11-21T12:16:48;164582.53;;;9.15;74.96
41688;BME280;27371;42.686;23.362;2023-11-21T12:19:14;164574.53;;;9.12;75.33
41688;BME280;27371;42.686;23.362;2023-11-21T12:21:40;164530.47;;;8.95;76.81
41688;BME280;27371;42.686;23.362;2023-11-21T12:24:14;164551.84;;;9.03;78.01
41688;BME280;27371;42.686;23.362;2023-11-21T12:26:40;164539.88;;;8.99;77.67
41688;BME280;27371;42.686;23.362;2023-11-21T12:29:06;164542.50;;;9.00;78.12
41688;BME280;27371;42.686;23.362;2023-11-21T12:31:33;164521.16;;;8.91;79.73
41688;BME280;27371;42.686;23.362;2023-11-21T12:34:00;164495.75;;;8.82;79.91
41688;BME280;27371;42.686;23.362;2023-11-21T12:36:26;164507.78;;;8.86;80.26
41688;BME280;27371;42.686;23.362;2023-11-21T12:38:51;164467.72;;;8.71;80.21
41688;BME280;27371;42.686;23.362;2023-11-21T12:41:17;164470.44;;;8.72;80.91
41688;BME280;27371;42.686;23.362;2023-11-21T12:43:45;164435.72;;;8.59;81.29
41688;BME280;27371;42.686;23.362;2023-11-21T12:46:11;164430.38;;;8.57;81.74
41688;BME280;27371;42.686;23.362;2023-11-21T12:48:41;164395.66;;;8.43;82.06
41688;BME280;27371;42.686;23.362;2023-11-21T12:51:11;164358.25;;;8.29;82.61
41688;BME280;27371;42.686;23.362;2023-11-21T12:53:40;164355.59;;;8.28;83.30
41688;BME280;27371;42.686;23.362;2023-11-21T12:56:14;164331.59;;;8.19;83.19
41688;BME280;27371;42.686;23.362;2023-11-21T12:58:45;164343.56;;;8.23;83.70
41688;BME280;27371;42.686;23.362;2023-11-21T13:01:16;164364.94;;;8.32;83.87